Terminal Aerodrome Forecast
Issued by NWS North Platte, NE

Home | Current Version | Previous Version | Text Only | Print | Product List | Glossary On
Versions: 1 2 3 4 5 6 7 8 9 10 11 12 13 14 15 16 17 18 19 20 21
000
FTUS43 KLBF 280500
TAFVTN
TAF
KVTN 280520Z 2806/2906 20010KT P6SM BKN120
     FM281100 18006KT P6SM BKN015
     FM281500 20010KT P6SM BKN020
     FM281800 16012G18KT P6SM BKN040 PROB30 2823/2903 3SM +TSRA
      SCT020 OVC035CB
     FM290300 23010KT P6SM BKN120=

USA.gov is the U.S. government's official web portal to all federal, state and local government web resources and services.